Los Lunas PMC

Dec. 14, 2019, 3 p.m.

  • imperial
Air Temperature RH Wind Speed Wind Direction Precipitation Solar Radiation
Date Time Max Min Mean Max Min Max Mean Mean Total Total
US/Mountain F F F % % MPH MPH deg. in. MJ/m^2
2019-12-13 15:00 64.58 62.24 63.86 23.0 16.0 18.59 10.6 359.0 0.0 1.349
2019-12-13 16:00 62.24 58.82 60.98 27.0 23.0 16.89 11.41 17.0 0.0 0.543
2019-12-13 17:00 58.82 51.8 56.12 40.0 27.0 12.8 5.39 42.0 0.0 0.095
2019-12-13 18:00 51.8 46.22 48.38 49.0 40.0 6.11 3.69 37.0 0.0 0.002
2019-12-13 19:00 46.58 42.08 45.14 57.0 49.0 4.81 0.89 81.0 0.0 0.0
2019-12-13 20:00 42.08 38.66 39.92 66.0 57.0 2.1 0.81 262.0 0.0 0.0
2019-12-13 21:00 39.02 35.42 37.58 73.0 65.0 1.5 0.2 227.0 0.0 0.0
2019-12-13 22:00 35.42 32.9 34.16 80.0 73.0 2.3 0.29 170.0 0.0 0.0
2019-12-13 23:00 33.26 32.18 32.54 81.0 80.0 3.4 0.49 193.0 0.0 0.001
2019-12-14 00:00 32.54 29.48 30.74 90.0 81.0 4.7 0.69 319.0 0.0 0.001
2019-12-14 01:00 36.5 30.74 33.62 90.0 72.0 5.3 1.5 215.0 0.0 0.0
2019-12-14 02:00 33.26 28.94 30.92 90.0 79.0 3.31 0.49 156.0 0.0 0.001
2019-12-14 03:00 28.94 28.04 28.4 93.0 90.0 2.51 0.6 208.0 0.0 0.001
2019-12-14 04:00 28.04 26.78 27.5 95.0 92.0 2.59 0.4 45.0 0.0 0.001
2019-12-14 05:00 28.76 27.32 28.04 96.0 95.0 3.11 0.49 34.0 0.0 0.001
2019-12-14 06:00 27.68 26.24 27.14 96.0 95.0 1.41 0.09 94.0 0.0 0.001
2019-12-14 07:00 26.42 25.88 26.24 97.0 96.0 1.61 0.2 228.0 0.0 0.002
2019-12-14 08:00 33.62 26.06 27.68 97.0 85.0 5.01 1.21 240.0 0.0 0.101
2019-12-14 09:00 41.54 33.62 36.5 85.0 67.0 6.0 1.41 28.0 0.0 0.428
2019-12-14 10:00 55.94 41.54 47.12 67.0 46.0 8.21 2.39 126.0 0.0 1.224
2019-12-14 11:00 59.9 55.94 57.56 46.0 40.0 11.5 4.5 283.0 0.0 1.343
2019-12-14 12:00 63.32 59.0 60.44 40.0 36.0 12.1 5.19 284.0 0.0 1.518
2019-12-14 13:00 64.76 61.34 61.88 38.0 34.0 8.9 2.3 251.0 0.0 1.279
2019-12-14 14:00 66.38 64.4 64.76 34.0 28.0 15.1 5.5 286.0 0.0 1.346
2019-12-14 15:00 66.38 64.58 65.48 29.0 27.0 15.59 6.8 290.0 0.0 0.901

Data is presented as is, with no certification of correctness. DO NOT USE IN LEGAL PROCEEDINGS.